地図

経路データ

SID SEASON NUMBER BASIN SUBBASIN NAME ISO_TIME NATURE LAT LON WMO_WIND WMO_PRES WMO_AGENCY TRACK_TYPE DIST2LAND LANDFALL IFLAG USA_AGENCY USA_ATCF_ID USA_LAT USA_LON USA_RECORD USA_STATUS USA_WIND USA_PRES USA_SSHS USA_R34_NE USA_R34_SE USA_R34_SW USA_R34_NW USA_R50_NE USA_R50_SE USA_R50_SW USA_R50_NW USA_R64_NE USA_R64_SE USA_R64_SW USA_R64_NW USA_POCI USA_ROCI USA_RMW USA_EYE TOKYO_LAT TOKYO_LON TOKYO_GRADE TOKYO_WIND TOKYO_PRES TOKYO_R50_DIR TOKYO_R50_LONG TOKYO_R50_SHORT TOKYO_R30_DIR TOKYO_R30_LONG TOKYO_R30_SHORT TOKYO_LAND CMA_LAT CMA_LON CMA_CAT CMA_WIND CMA_PRES HKO_LAT HKO_LON HKO_CAT HKO_WIND HKO_PRES NEWDELHI_LAT NEWDELHI_LON NEWDELHI_GRADE NEWDELHI_WIND NEWDELHI_PRES NEWDELHI_CI NEWDELHI_DP NEWDELHI_POCI REUNION_LAT REUNION_LON REUNION_TYPE REUNION_WIND REUNION_PRES REUNION_TNUM REUNION_CI REUNION_RMW REUNION_R34_NE REUNION_R34_SE REUNION_R34_SW REUNION_R34_NW REUNION_R50_NE REUNION_R50_SE REUNION_R50_SW REUNION_R50_NW REUNION_R64_NE REUNION_R64_SE REUNION_R64_SW REUNION_R64_NW BOM_LAT BOM_LON BOM_TYPE BOM_WIND BOM_PRES BOM_TNUM BOM_CI BOM_RMW BOM_R34_NE BOM_R34_SE BOM_R34_SW BOM_R34_NW BOM_R50_NE BOM_R50_SE BOM_R50_SW BOM_R50_NW BOM_R64_NE BOM_R64_SE BOM_R64_SW BOM_R64_NW BOM_ROCI BOM_POCI BOM_EYE BOM_POS_METHOD BOM_PRES_METHOD NADI_LAT NADI_LON NADI_CAT NADI_WIND NADI_PRES WELLINGTON_LAT WELLINGTON_LON WELLINGTON_WIND WELLINGTON_PRES DS824_LAT DS824_LON DS824_STAGE DS824_WIND DS824_PRES TD9636_LAT TD9636_LON TD9636_STAGE TD9636_WIND TD9636_PRES TD9635_LAT TD9635_LON TD9635_WIND TD9635_PRES TD9635_ROCI NEUMANN_LAT NEUMANN_LON NEUMANN_CLASS NEUMANN_WIND NEUMANN_PRES MLC_LAT MLC_LON MLC_CLASS MLC_WIND MLC_PRES USA_GUST BOM_GUST BOM_GUST_PER REUNION_GUST REUNION_GUST_PER USA_SEAHGT USA_SEARAD_NE USA_SEARAD_SE USA_SEARAD_SW USA_SEARAD_NW STORM_SPEED STORM_DIR
1887258N17125 1887 48 WP MM NOT_NAMED 1887-09-14 16:00:00 NR 16.9000 125.000 main 266 266 __________O___ -1 16.9000 125.000 4 1 316
1887258N17125 1887 48 WP MM NOT_NAMED 1887-09-14 18:00:00 NR 16.9285 124.973 main 266 255 __________P___ -1 16.9285 124.973 4 2 313
1887258N17125 1887 48 WP MM NOT_NAMED 1887-09-14 21:00:00 NR 16.9855 124.905 main 255 244 __________P___ -1 16.9855 124.905 4 2 307
1887258N17125 1887 48 WP MM NOT_NAMED 1887-09-15 00:00:00 NR 17.0795 124.767 main 244 213 __________P___ -1 17.0795 124.767 4 4 304
1887258N17125 1887 48 WP MM NOT_NAMED 1887-09-15 03:00:00 NR 17.2323 124.516 main 213 204 __________P___ -1 17.2323 124.516 4 6 302
1887258N17125 1887 48 WP MM NOT_NAMED 1887-09-15 04:00:00 NR 17.3000 124.400 main 204 175 __________O___ -1 17.3000 124.400 4 9 301
1887258N17125 1887 48 WP MM NOT_NAMED 1887-09-15 06:00:00 NR 17.4627 124.114 main 178 134 __________P___ -1 17.4627 124.114 4 11 300
1887258N17125 1887 48 WP MM NOT_NAMED 1887-09-15 09:00:00 NR 17.7571 123.578 main 139 77 __________P___ -1 17.7571 123.578 4 13 299
1887258N17125 1887 48 WP MM NOT_NAMED 1887-09-15 12:00:00 NR 18.0811 122.960 main 77 0 __________P___ -1 18.0811 122.960 4 14 298
1887258N17125 1887 48 WP MM NOT_NAMED 1887-09-15 15:00:00 NR 18.4004 122.313 main 0 0 __________P___ -1 18.4004 122.313 4 14 297
1887258N17125 1887 48 WP MM NOT_NAMED 1887-09-15 16:00:00 NR 18.5000 122.100 main 11 11 __________O___ -1 18.5000 122.100 4 13 296
1887258N17125 1887 48 WP MM NOT_NAMED 1887-09-15 18:00:00 NR 18.6798 121.716 main 35 30 __________P___ -1 18.6798 121.716 4 12 295
1887258N17125 1887 48 WP MM NOT_NAMED 1887-09-15 21:00:00 NR 18.9313 121.141 main 39 39 __________P___ -1 18.9313 121.141 4 12 294
1887258N17125 1887 48 WP MM NOT_NAMED 1887-09-16 00:00:00 NR 19.1551 120.567 main 70 74 __________P___ -1 19.1551 120.567 4 12 291
1887258N17125 1887 48 WP MM NOT_NAMED 1887-09-16 03:00:00 NR 19.3452 119.992 main 114 122 __________P___ -1 19.3452 119.992 4 11 289
1887258N17125 1887 48 WP MM NOT_NAMED 1887-09-16 04:00:00 NR 19.4000 119.800 main 138 138 __________O___ -1 19.4000 119.800 4 11 285
1887258N17125 1887 48 WP MM NOT_NAMED 1887-09-16 06:00:00 NR 19.4898 119.406 main 176 176 __________P___ -1 19.4898 119.406 4 11 282
1887258N17125 1887 48 WP MM NOT_NAMED 1887-09-16 09:00:00 NR 19.5930 118.814 main 232 232 __________P___ -1 19.5930 118.814 4 11 280
1887258N17125 1887 48 WP MM NOT_NAMED 1887-09-16 12:00:00 NR 19.6779 118.234 main 291 291 __________P___ -1 19.6779 118.234 4 11 279
1887258N17125 1887 48 WP MM NOT_NAMED 1887-09-16 15:00:00 NR 19.7661 117.678 main 342 351 __________P___ -1 19.7661 117.678 4 11 280
1887258N17125 1887 48 WP MM NOT_NAMED 1887-09-16 16:00:00 NR 19.8000 117.500 main 361 343 __________O___ -1 19.8000 117.500 4 10 284
1887258N17125 1887 48 WP MM NOT_NAMED 1887-09-16 18:00:00 NR 19.8853 117.166 main 343 315 __________P___ -1 19.8853 117.166 4 10 287
1887258N17125 1887 48 WP MM NOT_NAMED 1887-09-16 21:00:00 NR 20.0262 116.689 main 315 282 __________P___ -1 20.0262 116.689 4 9 288
1887258N17125 1887 48 WP MM NOT_NAMED 1887-09-17 00:00:00 NR 20.1801 116.227 main 282 263 __________P___ -1 20.1801 116.227 4 9 290
1887258N17125 1887 48 WP MM NOT_NAMED 1887-09-17 03:00:00 NR 20.3438 115.760 main 263 245 __________P___ -1 20.3438 115.760 4 9 290
1887258N17125 1887 48 WP MM NOT_NAMED 1887-09-17 04:00:00 NR 20.4000 115.600 main 245 226 __________O___ -1 20.4000 115.600 4 10 290
1887258N17125 1887 48 WP MM NOT_NAMED 1887-09-17 06:00:00 NR 20.5136 115.251 main 226 183 __________P___ -1 20.5136 115.251 4 11 289
1887258N17125 1887 48 WP MM NOT_NAMED 1887-09-17 09:00:00 NR 20.6904 114.715 main 183 156 __________P___ -1 20.6904 114.715 4 11 290
1887258N17125 1887 48 WP MM NOT_NAMED 1887-09-17 12:00:00 NR 20.8693 114.179 main 156 123 __________P___ -1 20.8693 114.179 4 10 290
1887258N17125 1887 48 WP MM NOT_NAMED 1887-09-17 15:00:00 NR 21.0438 113.664 main 123 103 __________P___ -1 21.0438 113.664 4 10 290
1887258N17125 1887 48 WP MM NOT_NAMED 1887-09-17 16:00:00 NR 21.1000 113.500 main 103 80 __________O___ -1 21.1000 113.500 4 10 290
1887258N17125 1887 48 WP MM NOT_NAMED 1887-09-17 18:00:00 NR 21.2085 113.186 main 80 45 __________P___ -1 21.2085 113.186 4 9 291
1887258N17125 1887 48 WP MM NOT_NAMED 1887-09-17 21:00:00 NR 21.3630 112.746 main 45 22 __________P___ -1 21.3630 112.746 4 9 291
1887258N17125 1887 48 WP MM NOT_NAMED 1887-09-18 00:00:00 NR 21.5102 112.332 main 22 0 __________P___ -1 21.5102 112.332 4 8 291
1887258N17125 1887 48 WP MM NOT_NAMED 1887-09-18 03:00:00 NR 21.6530 111.932 main 0 0 __________P___ -1 21.6530 111.932 4 8 291
1887258N17125 1887 48 WP MM NOT_NAMED 1887-09-18 04:00:00 NR 21.7000 111.800 main 0 __________O___ -1 21.7000 111.800 4 8 291

デジタル台風データ・検索

IBTrACS Databaseについて

本データベースは、米国NOAAが公開する1842年以降の世界の熱帯低気圧のベストトラックデータアーカイブInternational Best Track Archive for Climate Stewardship (IBTrACS)を、ウェブで閲覧しやすい形式に変換したものです。

最終更新日:2021-10-21